Debra Devall — WCW9120 — position and weather

sailwx.info

Track history (hours):
 
Tides and Currents Weather Stations Pressure Air Temp Water Temp Dewpoint Dewpoint Depression Visibility Wind Speed Wind Dir Waves Ship Positions

Debra Devall

Owner: DEVALL DEBRA INC, HACKBERRY, LA. More information available from US FCC via Universal Licensing System and Coast Guard Vessel Documentation Center.

Last reported at 2017-Sep-21 17:31 UTC. Time now 2017-Sep-21 17:48 UTC.
Position N 30°05' W 093°20'.

Length 15 m.

MMSI: 366972940.

Date/timePositionNaut miles runAvg speedWind from/ knotsBaromVisibWave heightAir tempDewpointWater temp
2017-Sep-21 17:31N 30°05' W 093°20'0 0.8
2017-Sep-21 17:01N 30°05' W 093°20'0 0.0
2017-Sep-21 16:24N 30°05' W 093°20'0 0.0
2017-Sep-21 16:01N 30°05' W 093°20'0 0.0
2017-Sep-21 15:31N 30°05' W 093°20'0 0.0
2017-Sep-21 15:01N 30°05' W 093°20'0 0.0
2017-Sep-21 14:31N 30°05' W 093°20'0 0.0
2017-Sep-21 14:01N 30°05' W 093°20'2 3.2
2017-Sep-21 13:31N 30°06' W 093°20'3 5.7
2017-Sep-21 13:01N 30°09' W 093°20'0 0.5
2017-Sep-21 12:31N 30°09' W 093°20'2 4.9
2017-Sep-21 12:00N 30°11' W 093°18'2 4.5
2017-Sep-21 11:31N 30°13' W 093°17'0 0.3
2017-Sep-21 11:01N 30°14' W 093°17'0 0.0
2017-Sep-21 10:31N 30°14' W 093°17'0 0.0
2017-Sep-21 10:00N 30°14' W 093°17'1 1.4
2017-Sep-21 09:31N 30°13' W 093°17'3 5.6
2017-Sep-21 09:01N 30°11' W 093°19'3 5.6
2017-Sep-21 08:31N 30°08' W 093°20'2 4.4
2017-Sep-21 08:01N 30°06' W 093°20'3 5.9
2017-Sep-21 07:31N 30°09' W 093°20'3 6.1
2017-Sep-21 07:01N 30°11' W 093°18'3 5.8
2017-Sep-21 06:30N 30°13' W 093°15'0 0.5
2017-Sep-21 06:00N 30°14' W 093°15'3 6.2
2017-Sep-21 05:31N 30°11' W 093°18'3 6.1
2017-Sep-21 05:01N 30°09' W 093°20'3 6.2
2017-Sep-21 04:30N 30°06' W 093°20'3 5.3
2017-Sep-21 04:01N 30°04' W 093°21'0 0.0
2017-Sep-21 03:31N 30°04' W 093°21'0 0.0
2017-Sep-21 03:01N 30°04' W 093°21'0 0.0
2017-Sep-21 02:31N 30°04' W 093°21'0 0.0
2017-Sep-21 02:01N 30°04' W 093°21'0 0.0
2017-Sep-21 01:30N 30°04' W 093°21'0 0.9
2017-Sep-21 01:01N 30°04' W 093°22'0 0.5
2017-Sep-21 00:31N 30°04' W 093°21'0 0.9
2017-Sep-21 00:01N 30°04' W 093°22'0 0.0
2017-Sep-20 23:30N 30°04' W 093°22'0 0.0
2017-Sep-20 23:00N 30°04' W 093°22'0 0.5
2017-Sep-20 22:31N 30°04' W 093°22'1 1.5
2017-Sep-20 22:01N 30°04' W 093°21'1 2.1
2017-Sep-20 21:31N 30°05' W 093°20'2 3.0
2017-Sep-20 21:01N 30°06' W 093°19'3 5.8
2017-Sep-20 20:31N 30°04' W 093°21'0 0.7
2017-Sep-20 20:01N 30°04' W 093°22'1 1.3
2017-Sep-20 19:31N 30°04' W 093°21'1 1.4
2017-Sep-20 19:01N 30°04' W 093°22'0 0.8
2017-Sep-20 18:31N 30°04' W 093°21'1 1.9
2017-Sep-20 18:01N 30°04' W 093°21'1 2.4
2017-Sep-20 17:31N 30°05' W 093°20'3 6.2
2017-Sep-20 17:01N 30°08' W 093°20'3 5.6
2017-Sep-20 16:31N 30°11' W 093°19'3 5.7
2017-Sep-20 16:01N 30°13' W 093°16'1 2.8
2017-Sep-20 15:30N 30°14' W 093°15'0 0.0
2017-Sep-20 15:01N 30°14' W 093°15'0 0.0
2017-Sep-20 14:00N 30°14' W 093°15'0 0.0
2017-Sep-20 13:30N 30°14' W 093°15'0 0.0
2017-Sep-20 13:00N 30°14' W 093°15'0 0.0
2017-Sep-20 12:30N 30°14' W 093°15'0 0.0
2017-Sep-20 11:59N 30°14' W 093°15'0 0.0
2017-Sep-20 11:30N 30°14' W 093°15'0 0.0
2017-Sep-20 11:00N 30°14' W 093°15'0 0.0
2017-Sep-20 10:24N 30°14' W 093°15'0 0.0
2017-Sep-20 09:58N 30°14' W 093°15'0 0.0
2017-Sep-20 09:07N 30°14' W 093°15'0 0.0
2017-Sep-20 08:59N 30°14' W 093°15'0 0.0
2017-Sep-20 08:09N 30°14' W 093°15'0 0.0
2017-Sep-20 08:00N 30°14' W 093°15'0 0.0
2017-Sep-20 07:30N 30°14' W 093°15'0 0.0
2017-Sep-20 07:00N 30°14' W 093°15'0 0.0
2017-Sep-20 06:30N 30°14' W 093°15'0 0.0
2017-Sep-20 06:00N 30°14' W 093°15'0 0.1
2017-Sep-20 05:30N 30°14' W 093°15'2 4.7
2017-Sep-20 05:01N 30°12' W 093°17'3 5.5
2017-Sep-20 04:31N 30°10' W 093°19'0 1.0
2017-Sep-20 04:01N 30°10' W 093°19'3 5.6
2017-Sep-20 03:31N 30°07' W 093°20'3 5.5
2017-Sep-20 03:01N 30°04' W 093°21'0 0.4
2017-Sep-20 02:30N 30°04' W 093°21'1 2.7
2017-Sep-20 02:01N 30°05' W 093°20'0 0.0
2017-Sep-20 01:31N 30°05' W 093°20'0 0.0
2017-Sep-20 01:01N 30°05' W 093°20'0 0.0
2017-Sep-20 00:31N 30°05' W 093°20'1 1.5
2017-Sep-20 00:01N 30°04' W 093°20'1 2.8
2017-Sep-19 23:30N 30°06' W 093°20'3 6.2
2017-Sep-19 23:01N 30°09' W 093°20'3 6.0
2017-Sep-19 22:31N 30°11' W 093°18'3 6.0
2017-Sep-19 22:01N 30°13' W 093°15'3 4.5
2017-Sep-19 21:26N 30°15' W 093°13'1 2.4
2017-Sep-19 21:00N 30°15' W 093°12'1 1.1
2017-Sep-19 20:31N 30°15' W 093°12'1 2.4
2017-Sep-19 20:00N 30°15' W 093°13'2 3.2
2017-Sep-19 19:31N 30°14' W 093°15'2 4.5
2017-Sep-19 19:00N 30°12' W 093°17'3 6.2
2017-Sep-19 18:31N 30°10' W 093°19'3 6.0
2017-Sep-19 18:00N 30°07' W 093°20'2 4.4
2017-Sep-19 17:31N 30°05' W 093°20'2 4.9
2017-Sep-19 17:01N 30°07' W 093°20'2 3.0
2017-Sep-19 16:31N 30°09' W 093°20'2 3.7
2017-Sep-19 16:01N 30°07' W 093°20'2 4.7
2017-Sep-19 15:31N 30°05' W 093°20'1 2.9
2017-Sep-19 15:01N 30°04' W 093°21'1 2.7
2017-Sep-19 14:30N 30°05' W 093°20'0 0.0
2017-Sep-19 14:00N 30°05' W 093°20'0 0.0
2017-Sep-19 13:31N 30°05' W 093°20'0 0.7
2017-Sep-19 13:01N 30°05' W 093°20'0 0.7
2017-Sep-19 12:31N 30°05' W 093°20'0 0.0
2017-Sep-19 12:01N 30°05' W 093°20'0 0.0
2017-Sep-19 11:30N 30°05' W 093°20'0 0.0
2017-Sep-19 11:01N 30°05' W 093°20'0 0.0
2017-Sep-19 10:31N 30°05' W 093°20'2 4.2
2017-Sep-19 10:01N 30°07' W 093°20'3 5.6
2017-Sep-19 09:31N 30°09' W 093°20'3 5.4
2017-Sep-19 09:01N 30°12' W 093°18'3 5.5
2017-Sep-19 08:30N 30°14' W 093°15'1 1.1
2017-Sep-19 08:00N 30°13' W 093°16'3 5.7
2017-Sep-19 07:31N 30°11' W 093°18'2 4.9
2017-Sep-19 07:00N 30°09' W 093°20'3 5.1
2017-Sep-19 06:31N 30°07' W 093°20'2 3.8
2017-Sep-19 06:00N 30°05' W 093°20'0 0.0
2017-Sep-19 05:30N 30°05' W 093°20'0 0.0
2017-Sep-19 05:01N 30°05' W 093°20'0 0.2
2017-Sep-19 04:31N 30°05' W 093°20'2 4.3
2017-Sep-19 04:01N 30°07' W 093°20'2 3.8
2017-Sep-19 03:31N 30°09' W 093°20'1 2.6
2017-Sep-19 03:01N 30°08' W 093°20'2 4.7
2017-Sep-19 02:31N 30°05' W 093°20'1 3.0
2017-Sep-19 02:01N 30°04' W 093°21'0 0.6
2017-Sep-19 01:31N 30°04' W 093°21'1 2.6
2017-Sep-19 01:00N 30°05' W 093°20'0 0.6
2017-Sep-19 00:31N 30°05' W 093°20'0 0.0
2017-Sep-19 00:01N 30°05' W 093°20'0 0.0
2017-Sep-18 23:31N 30°05' W 093°20'0 0.0
2017-Sep-18 23:01N 30°05' W 093°20'0 0.0
2017-Sep-18 22:31N 30°05' W 093°20'0 0.0
2017-Sep-18 22:01N 30°05' W 093°20'0 0.7
2017-Sep-18 21:31N 30°05' W 093°20'1 1.4
2017-Sep-18 21:01N 30°04' W 093°21'1 1.7
2017-Sep-18 20:30N 30°04' W 093°21'1 2.3
2017-Sep-18 20:01N 30°05' W 093°20'1 1.2
2017-Sep-18 19:31N 30°05' W 093°20'2 3.6
2017-Sep-18 19:01N 30°04' W 093°21'0 0.5
2017-Sep-18 18:31N 30°04' W 093°22'0 0.4
2017-Sep-18 18:01N 30°04' W 093°21'0 0.5
2017-Sep-18 17:31N 30°04' W 093°22'0 0.4
2017-Sep-18 17:01N 30°04' W 093°21'2 3.4
2017-Sep-18 16:31N 30°05' W 093°20'2 3.7
2017-Sep-18 16:01N 30°06' W 093°18'0 0.9
2017-Sep-18 15:31N 30°06' W 093°19'1 2.1
2017-Sep-18 15:01N 30°05' W 093°20'1 2.6
2017-Sep-18 14:31N 30°06' W 093°18'0 0.0
2017-Sep-18 14:01N 30°06' W 093°18'0 0.0
2017-Sep-18 13:31N 30°06' W 093°18'0 0.0
2017-Sep-18 13:01N 30°06' W 093°18'0 0.0
2017-Sep-18 12:31N 30°06' W 093°18'0 0.1
2017-Sep-18 12:01N 30°06' W 093°18'0 0.0
2017-Sep-18 11:31N 30°06' W 093°18'0 0.0
2017-Sep-18 11:01N 30°06' W 093°18'0 0.0
2017-Sep-18 10:31N 30°06' W 093°18'0 0.0
2017-Sep-18 10:01N 30°06' W 093°18'0 0.0
2017-Sep-18 09:31N 30°06' W 093°18'0 0.0
2017-Sep-18 09:01N 30°06' W 093°18'0 0.0
2017-Sep-18 08:31N 30°06' W 093°18'1 1.5
2017-Sep-18 08:01N 30°06' W 093°19'3 5.4
2017-Sep-18 07:30N 30°04' W 093°21'0 0.4
2017-Sep-18 07:01N 30°04' W 093°21'2 4.0
2017-Sep-18 06:31N 30°05' W 093°20'0 0.2
2017-Sep-18 06:01N 30°05' W 093°20'0 0.0
2017-Sep-18 05:31N 30°05' W 093°20'0 0.0
2017-Sep-18 05:01N 30°05' W 093°20'0 0.0
2017-Sep-18 04:30N 30°05' W 093°20'0 0.0
2017-Sep-18 04:01N 30°05' W 093°20'0 0.0
2017-Sep-18 03:31N 30°05' W 093°20'2 3.1
2017-Sep-18 03:01N 30°06' W 093°19'3 5.1
2017-Sep-18 02:31N 30°04' W 093°21'1 2.5
2017-Sep-18 02:01N 30°04' W 093°22'0 1.0
2017-Sep-18 01:31N 30°04' W 093°21'0 0.0
2017-Sep-18 01:01N 30°04' W 093°21'0 0.0
2017-Sep-18 00:31N 30°04' W 093°21'0 0.0
2017-Sep-18 00:01N 30°04' W 093°21'0 0.0
2017-Sep-17 23:31N 30°04' W 093°21'0 0.0
2017-Sep-17 23:01N 30°04' W 093°21'0 0.1
2017-Sep-17 22:31N 30°04' W 093°21'0 0.0
2017-Sep-17 22:01N 30°04' W 093°21'0 0.0
2017-Sep-17 21:31N 30°04' W 093°21'0 0.0
2017-Sep-17 21:01N 30°04' W 093°21'0 0.0
2017-Sep-17 20:31N 30°04' W 093°21'0 0.0
2017-Sep-17 20:00N 30°04' W 093°21'0 0.4
2017-Sep-17 19:31N 30°04' W 093°21'0 0.4
2017-Sep-17 19:01N 30°04' W 093°21'0 0.2
2017-Sep-17 18:31N 30°04' W 093°21'2 3.8
2017-Sep-17 18:00N 30°05' W 093°20'0 0.0
2017-Sep-17 17:31N 30°05' W 093°20'0 0.0
2017-Sep-17 17:01N 30°05' W 093°20'0 0.0
2017-Sep-17 16:31N 30°05' W 093°20'0 0.0
2017-Sep-17 16:01N 30°05' W 093°20'0 0.0
2017-Sep-17 15:31N 30°05' W 093°20'0 0.0
2017-Sep-17 15:00N 30°05' W 093°20'0 0.0
2017-Sep-17 14:30N 30°05' W 093°20'0 0.0
2017-Sep-17 14:01N 30°05' W 093°20'0 0.0
2017-Sep-17 13:30N 30°05' W 093°20'0 0.0
2017-Sep-17 13:01N 30°05' W 093°20'0 0.0
2017-Sep-17 12:31N 30°05' W 093°20'0 0.0
2017-Sep-17 12:01N 30°05' W 093°20'0 0.0
2017-Sep-17 11:31N 30°05' W 093°20'2 3.7
2017-Sep-17 11:00N 30°04' W 093°21'1 1.2
2017-Sep-17 10:31N 30°04' W 093°21'3 5.0
2017-Sep-17 10:00N 30°06' W 093°20'3 5.6
2017-Sep-17 09:31N 30°09' W 093°20'3 5.5
2017-Sep-17 09:01N 30°11' W 093°18'3 5.6
2017-Sep-17 08:31N 30°13' W 093°16'1 1.1
2017-Sep-17 08:00N 30°14' W 093°15'0 0.0
2017-Sep-17 07:15N 30°14' W 093°15'0 0.0
2017-Sep-17 06:57N 30°14' W 093°15'0 0.0
2017-Sep-17 06:30N 30°14' W 093°15'0 0.0
2017-Sep-17 05:57N 30°14' W 093°15'0 0.0
2017-Sep-17 05:31N 30°14' W 093°15'0 0.0
2017-Sep-17 04:55N 30°14' W 093°15'0 0.0
2017-Sep-17 04:30N 30°14' W 093°15'0 0.0
2017-Sep-17 04:01N 30°14' W 093°15'0 0.0
2017-Sep-17 03:30N 30°14' W 093°15'0 0.0
2017-Sep-17 02:49N 30°14' W 093°15'0 0.0
2017-Sep-17 02:25N 30°14' W 093°15'0 0.0
2017-Sep-17 02:01N 30°14' W 093°15'1 3.0
2017-Sep-17 01:30N 30°12' W 093°16'3 6.1
2017-Sep-17 01:01N 30°11' W 093°19'3 5.1
2017-Sep-17 00:31N 30°08' W 093°20'3 5.7
2017-Sep-17 00:01N 30°06' W 093°20'3 5.4
2017-Sep-16 23:30N 30°04' W 093°22'0 0.6
2017-Sep-16 23:01N 30°04' W 093°21'0 0.0
2017-Sep-16 22:31N 30°04' W 093°21'0 0.0
2017-Sep-16 22:01N 30°04' W 093°21'0 0.0
2017-Sep-16 21:31N 30°04' W 093°21'0 0.0
2017-Sep-16 21:00N 30°04' W 093°21'0 0.0
2017-Sep-16 20:31N 30°04' W 093°21'0 0.0
2017-Sep-16 20:01N 30°04' W 093°21'0 0.7
2017-Sep-16 19:31N 30°04' W 093°21'2 4.2
2017-Sep-16 19:01N 30°05' W 093°20'0 0.8
2017-Sep-16 18:31N 30°05' W 093°20'0 0.5
2017-Sep-16 18:01N 30°05' W 093°20'0 0.0
2017-Sep-16 17:31N 30°05' W 093°20'0 0.0
2017-Sep-16 17:00N 30°05' W 093°20'0 0.0
2017-Sep-16 16:30N 30°05' W 093°20'0 0.0
2017-Sep-16 16:01N 30°05' W 093°20'0 0.0
2017-Sep-16 15:31N 30°05' W 093°20'0 0.0
2017-Sep-16 15:00N 30°05' W 093°20'0 0.0
2017-Sep-16 14:31N 30°05' W 093°20'0 0.6
2017-Sep-16 14:01N 30°05' W 093°20'2 3.2
2017-Sep-16 13:31N 30°04' W 093°21'2 3.4
2017-Sep-16 13:01N 30°05' W 093°20'2 3.3
2017-Sep-16 12:31N 30°07' W 093°20'2 3.3
2017-Sep-16 12:01N 30°08' W 093°20'1 2.8
2017-Sep-16 11:31N 30°10' W 093°19'2 3.2
2017-Sep-16 11:00N 30°11' W 093°18'2 3.3
2017-Sep-16 10:31N 30°12' W 093°17'1 3.0
2017-Sep-16 10:01N 30°13' W 093°16'1 0.4
2017-Sep-16 07:42N 30°14' W 093°15'0 0.0
2017-Sep-16 07:28N 30°14' W 093°15'0 0.0
2017-Sep-16 04:39N 30°14' W 093°15'0 0.0
2017-Sep-16 04:15N 30°14' W 093°15'0 0.0
2017-Sep-16 01:56N 30°14' W 093°15'0 0.0
2017-Sep-16 01:28N 30°14' W 093°15'0 0.0
2017-Sep-16 01:00N 30°14' W 093°15'2 3.1
2017-Sep-16 00:30N 30°12' W 093°16'3 5.2
2017-Sep-16 00:01N 30°11' W 093°18'2 4.6
2017-Sep-15 23:30N 30°09' W 093°20'2 4.8
2017-Sep-15 23:01N 30°07' W 093°20'2 4.7
2017-Sep-15 22:31N 30°04' W 093°20'1 0.3
2017-Sep-15 19:19N 30°04' W 093°21'0 0.0
2017-Sep-15 19:00N 30°04' W 093°21'0 0.0
2017-Sep-15 18:30N 30°04' W 093°21'1 1.1
2017-Sep-15 18:00N 30°04' W 093°21'1 2.9
2017-Sep-15 17:30N 30°05' W 093°20'3 6.2
2017-Sep-15 17:00N 30°08' W 093°20'3 6.1
2017-Sep-15 16:30N 30°11' W 093°18'3 5.6
2017-Sep-15 16:00N 30°13' W 093°17'0 0.2
2017-Sep-15 15:29N 30°13' W 093°17'0 0.1
2017-Sep-15 15:00N 30°14' W 093°17'0 0.0
2017-Sep-15 14:30N 30°14' W 093°17'0 0.0
2017-Sep-15 14:00N 30°14' W 093°17'0 0.0
2017-Sep-15 13:30N 30°14' W 093°17'0 0.0
2017-Sep-15 13:00N 30°14' W 093°17'0 0.0
2017-Sep-15 12:30N 30°14' W 093°17'0 0.0
2017-Sep-15 12:00N 30°13' W 093°17'0 0.1
2017-Sep-15 11:30N 30°13' W 093°17'1 1.1
2017-Sep-15 11:00N 30°13' W 093°17'2 4.8
2017-Sep-15 10:30N 30°11' W 093°18'3 5.1
2017-Sep-15 10:00N 30°09' W 093°20'3 5.6
2017-Sep-15 09:30N 30°06' W 093°20'2 4.7
2017-Sep-15 09:00N 30°04' W 093°21'0 1.0
2017-Sep-15 08:30N 30°04' W 093°21'1 1.1
2017-Sep-15 08:00N 30°04' W 093°21'2 4.8
2017-Sep-15 07:30N 30°06' W 093°20'3 5.1
2017-Sep-15 07:00N 30°09' W 093°20'3 5.1
2017-Sep-15 06:30N 30°11' W 093°19'3 5.7
2017-Sep-15 06:00N 30°13' W 093°16'1 2.8
2017-Sep-15 05:30N 30°14' W 093°15'0 0.0
2017-Sep-15 05:00N 30°14' W 093°15'0 0.0
2017-Sep-15 04:30N 30°14' W 093°15'0 0.0
2017-Sep-15 04:00N 30°14' W 093°15'0 0.0
2017-Sep-15 03:30N 30°14' W 093°15'0 0.0
2017-Sep-15 03:00N 30°14' W 093°15'0 0.0
2017-Sep-15 02:30N 30°14' W 093°15'0 0.0
2017-Sep-15 02:00N 30°14' W 093°15'0 0.0
2017-Sep-15 01:30N 30°14' W 093°15'0 0.0
2017-Sep-15 01:00N 30°14' W 093°15'0 0.0
2017-Sep-15 00:24N 30°14' W 093°15'0 0.0
2017-Sep-14 23:57N 30°14' W 093°15'0 0.0
2017-Sep-14 23:30N 30°14' W 093°15'0 0.0
2017-Sep-14 23:00N 30°14' W 093°15'0 0.0
2017-Sep-14 22:30N 30°14' W 093°15'0 0.0
2017-Sep-14 22:00N 30°14' W 093°15'0 0.0
2017-Sep-14 21:30N 30°14' W 093°15'1 1.4
2017-Sep-14 21:00N 30°13' W 093°16'3 5.5
2017-Sep-14 20:30N 30°11' W 093°18'3 5.7
2017-Sep-14 20:00N 30°09' W 093°20'3 6.0
2017-Sep-14 19:30N 30°06' W 093°20'3 5.8
2017-Sep-14 19:00N 30°04' W 093°21'0 0.2
2017-Sep-14 18:30N 30°04' W 093°21'2 3.6
2017-Sep-14 18:00N 30°05' W 093°20'0 0.2
2017-Sep-14 17:30N 30°05' W 093°20'0 0.0
2017-Sep-14 17:00N 30°05' W 093°20'0 0.0
2017-Sep-14 16:30N 30°05' W 093°20'1 1.7
2017-Sep-14 16:00N 30°06' W 093°20'3 7.0
2017-Sep-14 15:30N 30°09' W 093°20'2 4.4
2017-Sep-14 15:00N 30°11' W 093°19'0 0.0
2017-Sep-14 14:30N 30°11' W 093°19'1 1.3
2017-Sep-14 14:00N 30°11' W 093°19'3 6.4
2017-Sep-14 13:30N 30°07' W 093°20'3 5.8
2017-Sep-14 12:56N 30°04' W 093°21'0 0.5
2017-Sep-14 12:30N 30°04' W 093°21'1 2.7
2017-Sep-14 12:00N 30°05' W 093°20'2 4.3
2017-Sep-14 11:30N 30°04' W 093°22'0 0.3
2017-Sep-14 11:00N 30°04' W 093°22'0 0.0
2017-Sep-14 10:30N 30°04' W 093°22'0 0.0
2017-Sep-14 10:00N 30°04' W 093°22'0 0.0
2017-Sep-14 09:29N 30°04' W 093°22'0 0.0
2017-Sep-14 09:00N 30°04' W 093°22'0 0.0
2017-Sep-14 08:30N 30°04' W 093°22'0 0.4
2017-Sep-14 08:00N 30°04' W 093°22'1 2.6
2017-Sep-14 07:30N 30°04' W 093°20'2 3.7
2017-Sep-14 07:00N 30°06' W 093°19'1 1.5
2017-Sep-14 06:30N 30°06' W 093°18'0 0.1
2017-Sep-14 06:00N 30°06' W 093°18'2 3.5
2017-Sep-14 05:30N 30°05' W 093°17'0 0.1
2017-Sep-14 05:00N 30°05' W 093°17'0 0.1
2017-Sep-14 04:30N 30°05' W 093°17'2 3.3
2017-Sep-14 04:00N 30°06' W 093°18'2 3.1
2017-Sep-14 03:30N 30°05' W 093°20'0 0.0
2017-Sep-14 03:00N 30°05' W 093°20'0 0.0
2017-Sep-14 02:30N 30°05' W 093°20'0 0.0
2017-Sep-14 02:00N 30°05' W 093°20'0 0.0
2017-Sep-14 01:30N 30°05' W 093°20'0 0.0
2017-Sep-14 01:00N 30°05' W 093°20'0 0.0
2017-Sep-14 00:30N 30°05' W 093°20'0 0.0
2017-Sep-14 00:00N 30°05' W 093°20'1 2.6
2017-Sep-13 23:30N 30°04' W 093°21'1 1.7
2017-Sep-13 23:00N 30°04' W 093°22'0 0.1
2017-Sep-13 22:30N 30°04' W 093°22'1 1.2
2017-Sep-13 22:00N 30°04' W 093°21'1 3.0
2017-Sep-13 21:30N 30°05' W 093°20'0 0.0
2017-Sep-13 21:00N 30°05' W 093°20'0 0.1
2017-Sep-13 20:30N 30°05' W 093°20'0 0.1
2017-Sep-13 20:00N 30°05' W 093°20'3 6.2
2017-Sep-13 19:30N 30°08' W 093°20'3 5.9
2017-Sep-13 19:00N 30°11' W 093°19'3 5.5
2017-Sep-13 18:30N 30°13' W 093°17'1 1.1
2017-Sep-13 17:59N 30°14' W 093°17'0 0.0
2017-Sep-13 17:30N 30°13' W 093°17'0 0.1
2017-Sep-13 16:57N 30°14' W 093°17'3 5.9
2017-Sep-13 16:30N 30°11' W 093°18'3 6.5
2017-Sep-13 16:00N 30°08' W 093°20'3 6.8
2017-Sep-13 15:30N 30°05' W 093°20'0 0.3
2017-Sep-13 15:00N 30°05' W 093°20'0 0.0
2017-Sep-13 14:30N 30°05' W 093°20'0 0.0
2017-Sep-13 14:00N 30°05' W 093°20'0 0.0
2017-Sep-13 13:30N 30°05' W 093°20'0 0.0
2017-Sep-13 13:00N 30°05' W 093°20'0 0.0
2017-Sep-13 12:30N 30°05' W 093°20'0 0.0
2017-Sep-13 12:00N 30°05' W 093°20'0 0.0
2017-Sep-13 11:30N 30°05' W 093°20'0 0.0
2017-Sep-13 11:00N 30°05' W 093°20'0 0.0
2017-Sep-13 10:30N 30°05' W 093°20'0 0.6
2017-Sep-13 10:00N 30°05' W 093°20'2 3.4
2017-Sep-13 09:30N 30°04' W 093°21'1 1.3
2017-Sep-13 09:00N 30°04' W 093°21'2 4.7
2017-Sep-13 08:30N 30°06' W 093°20'3 5.5
2017-Sep-13 08:00N 30°09' W 093°20'3 5.4
2017-Sep-13 07:30N 30°11' W 093°18'3 5.6
2017-Sep-13 07:00N 30°13' W 093°16'1 2.2
2017-Sep-13 06:30N 30°14' W 093°15'0 0.0
2017-Sep-13 06:00N 30°14' W 093°15'0 0.0
2017-Sep-13 05:30N 30°14' W 093°15'0 0.0
2017-Sep-13 05:00N 30°14' W 093°15'0 0.0
2017-Sep-13 04:30N 30°14' W 093°15'0 0.0
2017-Sep-13 04:00N 30°14' W 093°15'0 0.0
2017-Sep-13 03:30N 30°14' W 093°15'0 0.0
2017-Sep-13 02:59N 30°14' W 093°15'0 0.0
2017-Sep-13 02:30N 30°14' W 093°15'0 0.0
2017-Sep-13 01:58N 30°14' W 093°15'0 0.0
2017-Sep-13 01:30N 30°14' W 093°15'0 0.0
2017-Sep-13 01:00N 30°14' W 093°15'0 0.0
2017-Sep-13 00:30N 30°14' W 093°15'0 0.0
2017-Sep-13 00:00N 30°14' W 093°15'1 1.8
2017-Sep-12 23:30N 30°13' W 093°16'2 4.5
2017-Sep-12 23:00N 30°12' W 093°18'3 5.6
2017-Sep-12 22:30N 30°09' W 093°20'3 5.4
2017-Sep-12 22:00N 30°07' W 093°20'2 4.8
2017-Sep-12 21:30N 30°04' W 093°20'1 2.6
2017-Sep-12 21:00N 30°04' W 093°22'0 0.6
2017-Sep-12 20:30N 30°04' W 093°21'0 0.0
2017-Sep-12 20:00N 30°04' W 093°21'0 0.1
2017-Sep-12 19:30N 30°04' W 093°21'0 0.2
2017-Sep-12 19:00N 30°04' W 093°21'0 0.2
2017-Sep-12 18:30N 30°04' W 093°21'2 3.6
2017-Sep-12 18:00N 30°05' W 093°20'2 3.0
2017-Sep-12 17:30N 30°04' W 093°21'0 1.0
2017-Sep-12 17:00N 30°04' W 093°22'0 0.7
2017-Sep-12 16:30N 30°04' W 093°21'0 0.0
2017-Sep-12 16:00N 30°04' W 093°21'2 3.8
2017-Sep-12 15:30N 30°05' W 093°20'0 1.0
2017-Sep-12 15:00N 30°05' W 093°20'0 1.0
2017-Sep-12 14:30N 30°05' W 093°20'0 0.0
2017-Sep-12 14:00N 30°05' W 093°20'1 0.2
2017-Sep-12 06:19N 30°06' W 093°19'2 7.4
2017-Sep-12 06:00N 30°04' W 093°21'0 0.3
2017-Sep-12 05:29N 30°04' W 093°21'2 4.8
2017-Sep-12 05:00N 30°06' W 093°20'3 5.7
2017-Sep-12 04:30N 30°09' W 093°20'3 5.4
2017-Sep-12 04:00N 30°11' W 093°18'3 5.6
2017-Sep-12 03:30N 30°13' W 093°16'1 2.2
2017-Sep-12 03:00N 30°14' W 093°15'0 0.0
2017-Sep-12 02:30N 30°14' W 093°15'0 0.0
2017-Sep-12 02:00N 30°14' W 093°15'0 0.0
2017-Sep-12 01:30N 30°14' W 093°15'0 0.0
2017-Sep-12 01:00N 30°14' W 093°15'0 0.0
2017-Sep-12 00:25N 30°14' W 093°15'0 0.0
2017-Sep-11 23:57N 30°14' W 093°15'0 0.0
2017-Sep-11 23:29N 30°14' W 093°15'0 0.0
2017-Sep-11 23:00N 30°14' W 093°15'0 0.0
2017-Sep-11 22:30N 30°14' W 093°15'0 0.0
2017-Sep-11 22:00N 30°14' W 093°15'0 0.0
2017-Sep-11 21:30N 30°14' W 093°15'0 0.0
2017-Sep-11 21:00N 30°14' W 093°15'0 0.0
2017-Sep-11 20:30N 30°14' W 093°15'2 3.2
2017-Sep-11 20:00N 30°12' W 093°16'3 5.9
2017-Sep-11 19:30N 30°11' W 093°19'3 5.2
2017-Sep-11 19:00N 30°08' W 093°20'3 5.5
2017-Sep-11 18:30N 30°06' W 093°20'3 5.4
2017-Sep-11 18:00N 30°04' W 093°22'  
Track history (hours):
 
Tides and Currents Weather Stations Pressure Air Temp Water Temp Dewpoint Dewpoint Depression Visibility Wind Speed Wind Dir Waves Ship Positions

Debra Devall

Owner: DEVALL DEBRA INC, HACKBERRY, LA. More information available from US FCC via Universal Licensing System and Coast Guard Vessel Documentation Center.

Last reported at 2017-Sep-21 17:31 UTC. Time now 2017-Sep-21 17:48 UTC.
Position N 30°05' W 093°20'.

Length 15 m.

MMSI: 366972940.

Date/timePositionNaut miles runAvg speedWind from/ knotsBaromVisibWave heightAir tempDewpointWater temp
2017-Sep-21 17:31N 30°05' W 093°20'0 0.8
2017-Sep-21 17:01N 30°05' W 093°20'0 0.0
2017-Sep-21 16:24N 30°05' W 093°20'0 0.0
2017-Sep-21 16:01N 30°05' W 093°20'0 0.0
2017-Sep-21 15:31N 30°05' W 093°20'0 0.0
2017-Sep-21 15:01N 30°05' W 093°20'0 0.0
2017-Sep-21 14:31N 30°05' W 093°20'0 0.0
2017-Sep-21 14:01N 30°05' W 093°20'2 3.2
2017-Sep-21 13:31N 30°06' W 093°20'3 5.7
2017-Sep-21 13:01N 30°09' W 093°20'0 0.5
2017-Sep-21 12:31N 30°09' W 093°20'2 4.9
2017-Sep-21 12:00N 30°11' W 093°18'2 4.5
2017-Sep-21 11:31N 30°13' W 093°17'0 0.3
2017-Sep-21 11:01N 30°14' W 093°17'0 0.0
2017-Sep-21 10:31N 30°14' W 093°17'0 0.0
2017-Sep-21 10:00N 30°14' W 093°17'1 1.4
2017-Sep-21 09:31N 30°13' W 093°17'3 5.6
2017-Sep-21 09:01N 30°11' W 093°19'3 5.6
2017-Sep-21 08:31N 30°08' W 093°20'2 4.4
2017-Sep-21 08:01N 30°06' W 093°20'3 5.9
2017-Sep-21 07:31N 30°09' W 093°20'3 6.1
2017-Sep-21 07:01N 30°11' W 093°18'3 5.8
2017-Sep-21 06:30N 30°13' W 093°15'0 0.5
2017-Sep-21 06:00N 30°14' W 093°15'3 6.2
2017-Sep-21 05:31N 30°11' W 093°18'3 6.1
2017-Sep-21 05:01N 30°09' W 093°20'3 6.2
2017-Sep-21 04:30N 30°06' W 093°20'3 5.3
2017-Sep-21 04:01N 30°04' W 093°21'0 0.0
2017-Sep-21 03:31N 30°04' W 093°21'0 0.0
2017-Sep-21 03:01N 30°04' W 093°21'0 0.0
2017-Sep-21 02:31N 30°04' W 093°21'0 0.0
2017-Sep-21 02:01N 30°04' W 093°21'0 0.0
2017-Sep-21 01:30N 30°04' W 093°21'0 0.9
2017-Sep-21 01:01N 30°04' W 093°22'0 0.5
2017-Sep-21 00:31N 30°04' W 093°21'0 0.9
2017-Sep-21 00:01N 30°04' W 093°22'0 0.0
2017-Sep-20 23:30N 30°04' W 093°22'0 0.0
2017-Sep-20 23:00N 30°04' W 093°22'0 0.5
2017-Sep-20 22:31N 30°04' W 093°22'1 1.5
2017-Sep-20 22:01N 30°04' W 093°21'1 2.1
2017-Sep-20 21:31N 30°05' W 093°20'2 3.0
2017-Sep-20 21:01N 30°06' W 093°19'3 5.8
2017-Sep-20 20:31N 30°04' W 093°21'0 0.7
2017-Sep-20 20:01N 30°04' W 093°22'1 1.3
2017-Sep-20 19:31N 30°04' W 093°21'1 1.4
2017-Sep-20 19:01N 30°04' W 093°22'0 0.8
2017-Sep-20 18:31N 30°04' W 093°21'1 1.9
2017-Sep-20 18:01N 30°04' W 093°21'1 2.4
2017-Sep-20 17:31N 30°05' W 093°20'3 6.2
2017-Sep-20 17:01N 30°08' W 093°20'3 5.6
2017-Sep-20 16:31N 30°11' W 093°19'3 5.7
2017-Sep-20 16:01N 30°13' W 093°16'1 2.8
2017-Sep-20 15:30N 30°14' W 093°15'0 0.0
2017-Sep-20 15:01N 30°14' W 093°15'0 0.0
2017-Sep-20 14:00N 30°14' W 093°15'0 0.0
2017-Sep-20 13:30N 30°14' W 093°15'0 0.0
2017-Sep-20 13:00N 30°14' W 093°15'0 0.0
2017-Sep-20 12:30N 30°14' W 093°15'0 0.0
2017-Sep-20 11:59N 30°14' W 093°15'0 0.0
2017-Sep-20 11:30N 30°14' W 093°15'0 0.0
2017-Sep-20 11:00N 30°14' W 093°15'0 0.0
2017-Sep-20 10:24N 30°14' W 093°15'0 0.0
2017-Sep-20 09:58N 30°14' W 093°15'0 0.0
2017-Sep-20 09:07N 30°14' W 093°15'0 0.0
2017-Sep-20 08:59N 30°14' W 093°15'0 0.0
2017-Sep-20 08:09N 30°14' W 093°15'0 0.0
2017-Sep-20 08:00N 30°14' W 093°15'0 0.0
2017-Sep-20 07:30N 30°14' W 093°15'0 0.0
2017-Sep-20 07:00N 30°14' W 093°15'0 0.0
2017-Sep-20 06:30N 30°14' W 093°15'0 0.0
2017-Sep-20 06:00N 30°14' W 093°15'0 0.1
2017-Sep-20 05:30N 30°14' W 093°15'2 4.7
2017-Sep-20 05:01N 30°12' W 093°17'3 5.5
2017-Sep-20 04:31N 30°10' W 093°19'0 1.0
2017-Sep-20 04:01N 30°10' W 093°19'3 5.6
2017-Sep-20 03:31N 30°07' W 093°20'3 5.5
2017-Sep-20 03:01N 30°04' W 093°21'0 0.4
2017-Sep-20 02:30N 30°04' W 093°21'1 2.7
2017-Sep-20 02:01N 30°05' W 093°20'0 0.0
2017-Sep-20 01:31N 30°05' W 093°20'0 0.0
2017-Sep-20 01:01N 30°05' W 093°20'0 0.0
2017-Sep-20 00:31N 30°05' W 093°20'1 1.5
2017-Sep-20 00:01N 30°04' W 093°20'1 2.8
2017-Sep-19 23:30N 30°06' W 093°20'3 6.2
2017-Sep-19 23:01N 30°09' W 093°20'3 6.0
2017-Sep-19 22:31N 30°11' W 093°18'3 6.0
2017-Sep-19 22:01N 30°13' W 093°15'3 4.5
2017-Sep-19 21:26N 30°15' W 093°13'1 2.4
2017-Sep-19 21:00N 30°15' W 093°12'1 1.1
2017-Sep-19 20:31N 30°15' W 093°12'1 2.4
2017-Sep-19 20:00N 30°15' W 093°13'2 3.2
2017-Sep-19 19:31N 30°14' W 093°15'2 4.5
2017-Sep-19 19:00N 30°12' W 093°17'3 6.2
2017-Sep-19 18:31N 30°10' W 093°19'3 6.0
2017-Sep-19 18:00N 30°07' W 093°20'2 4.4
2017-Sep-19 17:31N 30°05' W 093°20'2 4.9
2017-Sep-19 17:01N 30°07' W 093°20'2 3.0
2017-Sep-19 16:31N 30°09' W 093°20'2 3.7
2017-Sep-19 16:01N 30°07' W 093°20'2 4.7
2017-Sep-19 15:31N 30°05' W 093°20'1 2.9
2017-Sep-19 15:01N 30°04' W 093°21'1 2.7
2017-Sep-19 14:30N 30°05' W 093°20'0 0.0
2017-Sep-19 14:00N 30°05' W 093°20'0 0.0
2017-Sep-19 13:31N 30°05' W 093°20'0 0.7
2017-Sep-19 13:01N 30°05' W 093°20'0 0.7
2017-Sep-19 12:31N 30°05' W 093°20'0 0.0
2017-Sep-19 12:01N 30°05' W 093°20'0 0.0
2017-Sep-19 11:30N 30°05' W 093°20'0 0.0
2017-Sep-19 11:01N 30°05' W 093°20'0 0.0
2017-Sep-19 10:31N 30°05' W 093°20'2 4.2
2017-Sep-19 10:01N 30°07' W 093°20'3 5.6
2017-Sep-19 09:31N 30°09' W 093°20'3 5.4
2017-Sep-19 09:01N 30°12' W 093°18'3 5.5
2017-Sep-19 08:30N 30°14' W 093°15'1 1.1
2017-Sep-19 08:00N 30°13' W 093°16'3 5.7
2017-Sep-19 07:31N 30°11' W 093°18'2 4.9
2017-Sep-19 07:00N 30°09' W 093°20'3 5.1
2017-Sep-19 06:31N 30°07' W 093°20'2 3.8
2017-Sep-19 06:00N 30°05' W 093°20'0 0.0
2017-Sep-19 05:30N 30°05' W 093°20'0 0.0
2017-Sep-19 05:01N 30°05' W 093°20'0 0.2
2017-Sep-19 04:31N 30°05' W 093°20'2 4.3
2017-Sep-19 04:01N 30°07' W 093°20'2 3.8
2017-Sep-19 03:31N 30°09' W 093°20'1 2.6
2017-Sep-19 03:01N 30°08' W 093°20'2 4.7
2017-Sep-19 02:31N 30°05' W 093°20'1 3.0
2017-Sep-19 02:01N 30°04' W 093°21'0 0.6
2017-Sep-19 01:31N 30°04' W 093°21'1 2.6
2017-Sep-19 01:00N 30°05' W 093°20'0 0.6
2017-Sep-19 00:31N 30°05' W 093°20'0 0.0
2017-Sep-19 00:01N 30°05' W 093°20'0 0.0
2017-Sep-18 23:31N 30°05' W 093°20'0 0.0
2017-Sep-18 23:01N 30°05' W 093°20'0 0.0
2017-Sep-18 22:31N 30°05' W 093°20'0 0.0
2017-Sep-18 22:01N 30°05' W 093°20'0 0.7
2017-Sep-18 21:31N 30°05' W 093°20'1 1.4
2017-Sep-18 21:01N 30°04' W 093°21'1 1.7
2017-Sep-18 20:30N 30°04' W 093°21'1 2.3
2017-Sep-18 20:01N 30°05' W 093°20'1 1.2
2017-Sep-18 19:31N 30°05' W 093°20'2 3.6
2017-Sep-18 19:01N 30°04' W 093°21'0 0.5
2017-Sep-18 18:31N 30°04' W 093°22'0 0.4
2017-Sep-18 18:01N 30°04' W 093°21'0 0.5
2017-Sep-18 17:31N 30°04' W 093°22'0 0.4
2017-Sep-18 17:01N 30°04' W 093°21'2 3.4
2017-Sep-18 16:31N 30°05' W 093°20'2 3.7
2017-Sep-18 16:01N 30°06' W 093°18'0 0.9
2017-Sep-18 15:31N 30°06' W 093°19'1 2.1
2017-Sep-18 15:01N 30°05' W 093°20'1 2.6
2017-Sep-18 14:31N 30°06' W 093°18'0 0.0
2017-Sep-18 14:01N 30°06' W 093°18'0 0.0
2017-Sep-18 13:31N 30°06' W 093°18'0 0.0
2017-Sep-18 13:01N 30°06' W 093°18'0 0.0
2017-Sep-18 12:31N 30°06' W 093°18'0 0.1
2017-Sep-18 12:01N 30°06' W 093°18'0 0.0
2017-Sep-18 11:31N 30°06' W 093°18'0 0.0
2017-Sep-18 11:01N 30°06' W 093°18'0 0.0
2017-Sep-18 10:31N 30°06' W 093°18'0 0.0
2017-Sep-18 10:01N 30°06' W 093°18'0 0.0
2017-Sep-18 09:31N 30°06' W 093°18'0 0.0
2017-Sep-18 09:01N 30°06' W 093°18'0 0.0
2017-Sep-18 08:31N 30°06' W 093°18'1 1.5
2017-Sep-18 08:01N 30°06' W 093°19'3 5.4
2017-Sep-18 07:30N 30°04' W 093°21'0 0.4
2017-Sep-18 07:01N 30°04' W 093°21'2 4.0
2017-Sep-18 06:31N 30°05' W 093°20'0 0.2
2017-Sep-18 06:01N 30°05' W 093°20'0 0.0
2017-Sep-18 05:31N 30°05' W 093°20'0 0.0
2017-Sep-18 05:01N 30°05' W 093°20'0 0.0
2017-Sep-18 04:30N 30°05' W 093°20'0 0.0
2017-Sep-18 04:01N 30°05' W 093°20'0 0.0
2017-Sep-18 03:31N 30°05' W 093°20'2 3.1
2017-Sep-18 03:01N 30°06' W 093°19'3 5.1
2017-Sep-18 02:31N 30°04' W 093°21'1 2.5
2017-Sep-18 02:01N 30°04' W 093°22'0 1.0
2017-Sep-18 01:31N 30°04' W 093°21'0 0.0
2017-Sep-18 01:01N 30°04' W 093°21'0 0.0
2017-Sep-18 00:31N 30°04' W 093°21'0 0.0
2017-Sep-18 00:01N 30°04' W 093°21'0 0.0
2017-Sep-17 23:31N 30°04' W 093°21'0 0.0
2017-Sep-17 23:01N 30°04' W 093°21'0 0.1
2017-Sep-17 22:31N 30°04' W 093°21'0 0.0
2017-Sep-17 22:01N 30°04' W 093°21'0 0.0
2017-Sep-17 21:31N 30°04' W 093°21'0 0.0
2017-Sep-17 21:01N 30°04' W 093°21'0 0.0
2017-Sep-17 20:31N 30°04' W 093°21'0 0.0
2017-Sep-17 20:00N 30°04' W 093°21'0 0.4
2017-Sep-17 19:31N 30°04' W 093°21'0 0.4
2017-Sep-17 19:01N 30°04' W 093°21'0 0.2
2017-Sep-17 18:31N 30°04' W 093°21'2 3.8
2017-Sep-17 18:00N 30°05' W 093°20'0 0.0
2017-Sep-17 17:31N 30°05' W 093°20'0 0.0
2017-Sep-17 17:01N 30°05' W 093°20'0 0.0
2017-Sep-17 16:31N 30°05' W 093°20'0 0.0
2017-Sep-17 16:01N 30°05' W 093°20'0 0.0
2017-Sep-17 15:31N 30°05' W 093°20'0 0.0
2017-Sep-17 15:00N 30°05' W 093°20'0 0.0
2017-Sep-17 14:30N 30°05' W 093°20'0 0.0
2017-Sep-17 14:01N 30°05' W 093°20'0 0.0
2017-Sep-17 13:30N 30°05' W 093°20'0 0.0
2017-Sep-17 13:01N 30°05' W 093°20'0 0.0
2017-Sep-17 12:31N 30°05' W 093°20'0 0.0
2017-Sep-17 12:01N 30°05' W 093°20'0 0.0
2017-Sep-17 11:31N 30°05' W 093°20'2 3.7
2017-Sep-17 11:00N 30°04' W 093°21'1 1.2
2017-Sep-17 10:31N 30°04' W 093°21'3 5.0
2017-Sep-17 10:00N 30°06' W 093°20'3 5.6
2017-Sep-17 09:31N 30°09' W 093°20'3 5.5
2017-Sep-17 09:01N 30°11' W 093°18'3 5.6
2017-Sep-17 08:31N 30°13' W 093°16'1 1.1
2017-Sep-17 08:00N 30°14' W 093°15'0 0.0
2017-Sep-17 07:15N 30°14' W 093°15'0 0.0
2017-Sep-17 06:57N 30°14' W 093°15'0 0.0
2017-Sep-17 06:30N 30°14' W 093°15'0 0.0
2017-Sep-17 05:57N 30°14' W 093°15'0 0.0
2017-Sep-17 05:31N 30°14' W 093°15'0 0.0
2017-Sep-17 04:55N 30°14' W 093°15'0 0.0
2017-Sep-17 04:30N 30°14' W 093°15'0 0.0
2017-Sep-17 04:01N 30°14' W 093°15'0 0.0
2017-Sep-17 03:30N 30°14' W 093°15'0 0.0
2017-Sep-17 02:49N 30°14' W 093°15'0 0.0
2017-Sep-17 02:25N 30°14' W 093°15'0 0.0
2017-Sep-17 02:01N 30°14' W 093°15'1 3.0
2017-Sep-17 01:30N 30°12' W 093°16'3 6.1
2017-Sep-17 01:01N 30°11' W 093°19'3 5.1
2017-Sep-17 00:31N 30°08' W 093°20'3 5.7
2017-Sep-17 00:01N 30°06' W 093°20'3 5.4
2017-Sep-16 23:30N 30°04' W 093°22'0 0.6
2017-Sep-16 23:01N 30°04' W 093°21'0 0.0
2017-Sep-16 22:31N 30°04' W 093°21'0 0.0
2017-Sep-16 22:01N 30°04' W 093°21'0 0.0
2017-Sep-16 21:31N 30°04' W 093°21'0 0.0
2017-Sep-16 21:00N 30°04' W 093°21'0 0.0
2017-Sep-16 20:31N 30°04' W 093°21'0 0.0
2017-Sep-16 20:01N 30°04' W 093°21'0 0.7
2017-Sep-16 19:31N 30°04' W 093°21'2 4.2
2017-Sep-16 19:01N 30°05' W 093°20'0 0.8
2017-Sep-16 18:31N 30°05' W 093°20'0 0.5
2017-Sep-16 18:01N 30°05' W 093°20'0 0.0
2017-Sep-16 17:31N 30°05' W 093°20'0 0.0
2017-Sep-16 17:00N 30°05' W 093°20'0 0.0
2017-Sep-16 16:30N 30°05' W 093°20'0 0.0
2017-Sep-16 16:01N 30°05' W 093°20'0 0.0
2017-Sep-16 15:31N 30°05' W 093°20'0 0.0
2017-Sep-16 15:00N 30°05' W 093°20'0 0.0
2017-Sep-16 14:31N 30°05' W 093°20'0 0.6
2017-Sep-16 14:01N 30°05' W 093°20'2 3.2
2017-Sep-16 13:31N 30°04' W 093°21'2 3.4
2017-Sep-16 13:01N 30°05' W 093°20'2 3.3
2017-Sep-16 12:31N 30°07' W 093°20'2 3.3
2017-Sep-16 12:01N 30°08' W 093°20'1 2.8
2017-Sep-16 11:31N 30°10' W 093°19'2 3.2
2017-Sep-16 11:00N 30°11' W 093°18'2 3.3
2017-Sep-16 10:31N 30°12' W 093°17'1 3.0
2017-Sep-16 10:01N 30°13' W 093°16'1 0.4
2017-Sep-16 07:42N 30°14' W 093°15'0 0.0
2017-Sep-16 07:28N 30°14' W 093°15'0 0.0
2017-Sep-16 04:39N 30°14' W 093°15'0 0.0
2017-Sep-16 04:15N 30°14' W 093°15'0 0.0
2017-Sep-16 01:56N 30°14' W 093°15'0 0.0
2017-Sep-16 01:28N 30°14' W 093°15'0 0.0
2017-Sep-16 01:00N 30°14' W 093°15'2 3.1
2017-Sep-16 00:30N 30°12' W 093°16'3 5.2
2017-Sep-16 00:01N 30°11' W 093°18'2 4.6
2017-Sep-15 23:30N 30°09' W 093°20'2 4.8
2017-Sep-15 23:01N 30°07' W 093°20'2 4.7
2017-Sep-15 22:31N 30°04' W 093°20'1 0.3
2017-Sep-15 19:19N 30°04' W 093°21'0 0.0
2017-Sep-15 19:00N 30°04' W 093°21'0 0.0
2017-Sep-15 18:30N 30°04' W 093°21'1 1.1
2017-Sep-15 18:00N 30°04' W 093°21'1 2.9
2017-Sep-15 17:30N 30°05' W 093°20'3 6.2
2017-Sep-15 17:00N 30°08' W 093°20'3 6.1
2017-Sep-15 16:30N 30°11' W 093°18'3 5.6
2017-Sep-15 16:00N 30°13' W 093°17'0 0.2
2017-Sep-15 15:29N 30°13' W 093°17'0 0.1
2017-Sep-15 15:00N 30°14' W 093°17'0 0.0
2017-Sep-15 14:30N 30°14' W 093°17'0 0.0
2017-Sep-15 14:00N 30°14' W 093°17'0 0.0
2017-Sep-15 13:30N 30°14' W 093°17'0 0.0
2017-Sep-15 13:00N 30°14' W 093°17'0 0.0
2017-Sep-15 12:30N 30°14' W 093°17'0 0.0
2017-Sep-15 12:00N 30°13' W 093°17'0 0.1
2017-Sep-15 11:30N 30°13' W 093°17'1 1.1
2017-Sep-15 11:00N 30°13' W 093°17'2 4.8
2017-Sep-15 10:30N 30°11' W 093°18'3 5.1
2017-Sep-15 10:00N 30°09' W 093°20'3 5.6
2017-Sep-15 09:30N 30°06' W 093°20'2 4.7
2017-Sep-15 09:00N 30°04' W 093°21'0 1.0
2017-Sep-15 08:30N 30°04' W 093°21'1 1.1
2017-Sep-15 08:00N 30°04' W 093°21'2 4.8
2017-Sep-15 07:30N 30°06' W 093°20'3 5.1
2017-Sep-15 07:00N 30°09' W 093°20'3 5.1
2017-Sep-15 06:30N 30°11' W 093°19'3 5.7
2017-Sep-15 06:00N 30°13' W 093°16'1 2.8
2017-Sep-15 05:30N 30°14' W 093°15'0 0.0
2017-Sep-15 05:00N 30°14' W 093°15'0 0.0
2017-Sep-15 04:30N 30°14' W 093°15'0 0.0
2017-Sep-15 04:00N 30°14' W 093°15'0 0.0
2017-Sep-15 03:30N 30°14' W 093°15'0 0.0
2017-Sep-15 03:00N 30°14' W 093°15'0 0.0
2017-Sep-15 02:30N 30°14' W 093°15'0 0.0
2017-Sep-15 02:00N 30°14' W 093°15'0 0.0
2017-Sep-15 01:30N 30°14' W 093°15'0 0.0
2017-Sep-15 01:00N 30°14' W 093°15'0 0.0
2017-Sep-15 00:24N 30°14' W 093°15'0 0.0
2017-Sep-14 23:57N 30°14' W 093°15'0 0.0
2017-Sep-14 23:30N 30°14' W 093°15'0 0.0
2017-Sep-14 23:00N 30°14' W 093°15'0 0.0
2017-Sep-14 22:30N 30°14' W 093°15'0 0.0
2017-Sep-14 22:00N 30°14' W 093°15'0 0.0
2017-Sep-14 21:30N 30°14' W 093°15'1 1.4
2017-Sep-14 21:00N 30°13' W 093°16'3 5.5
2017-Sep-14 20:30N 30°11' W 093°18'3 5.7
2017-Sep-14 20:00N 30°09' W 093°20'3 6.0
2017-Sep-14 19:30N 30°06' W 093°20'3 5.8
2017-Sep-14 19:00N 30°04' W 093°21'0 0.2
2017-Sep-14 18:30N 30°04' W 093°21'2 3.6
2017-Sep-14 18:00N 30°05' W 093°20'0 0.2
2017-Sep-14 17:30N 30°05' W 093°20'0 0.0
2017-Sep-14 17:00N 30°05' W 093°20'0 0.0
2017-Sep-14 16:30N 30°05' W 093°20'1 1.7
2017-Sep-14 16:00N 30°06' W 093°20'3 7.0
2017-Sep-14 15:30N 30°09' W 093°20'2 4.4
2017-Sep-14 15:00N 30°11' W 093°19'0 0.0
2017-Sep-14 14:30N 30°11' W 093°19'1 1.3
2017-Sep-14 14:00N 30°11' W 093°19'3 6.4
2017-Sep-14 13:30N 30°07' W 093°20'3 5.8
2017-Sep-14 12:56N 30°04' W 093°21'0 0.5
2017-Sep-14 12:30N 30°04' W 093°21'1 2.7
2017-Sep-14 12:00N 30°05' W 093°20'2 4.3
2017-Sep-14 11:30N 30°04' W 093°22'0 0.3
2017-Sep-14 11:00N 30°04' W 093°22'0 0.0
2017-Sep-14 10:30N 30°04' W 093°22'0 0.0
2017-Sep-14 10:00N 30°04' W 093°22'0 0.0
2017-Sep-14 09:29N 30°04' W 093°22'0 0.0
2017-Sep-14 09:00N 30°04' W 093°22'0 0.0
2017-Sep-14 08:30N 30°04' W 093°22'0 0.4
2017-Sep-14 08:00N 30°04' W 093°22'1 2.6
2017-Sep-14 07:30N 30°04' W 093°20'2 3.7
2017-Sep-14 07:00N 30°06' W 093°19'1 1.5
2017-Sep-14 06:30N 30°06' W 093°18'0 0.1
2017-Sep-14 06:00N 30°06' W 093°18'2 3.5
2017-Sep-14 05:30N 30°05' W 093°17'0 0.1
2017-Sep-14 05:00N 30°05' W 093°17'0 0.1
2017-Sep-14 04:30N 30°05' W 093°17'2 3.3
2017-Sep-14 04:00N 30°06' W 093°18'2 3.1
2017-Sep-14 03:30N 30°05' W 093°20'0 0.0
2017-Sep-14 03:00N 30°05' W 093°20'0 0.0
2017-Sep-14 02:30N 30°05' W 093°20'0 0.0
2017-Sep-14 02:00N 30°05' W 093°20'0 0.0
2017-Sep-14 01:30N 30°05' W 093°20'0 0.0
2017-Sep-14 01:00N 30°05' W 093°20'0 0.0
2017-Sep-14 00:30N 30°05' W 093°20'0 0.0
2017-Sep-14 00:00N 30°05' W 093°20'1 2.6
2017-Sep-13 23:30N 30°04' W 093°21'1 1.7
2017-Sep-13 23:00N 30°04' W 093°22'0 0.1
2017-Sep-13 22:30N 30°04' W 093°22'1 1.2
2017-Sep-13 22:00N 30°04' W 093°21'1 3.0
2017-Sep-13 21:30N 30°05' W 093°20'0 0.0
2017-Sep-13 21:00N 30°05' W 093°20'0 0.1
2017-Sep-13 20:30N 30°05' W 093°20'0 0.1
2017-Sep-13 20:00N 30°05' W 093°20'3 6.2
2017-Sep-13 19:30N 30°08' W 093°20'3 5.9
2017-Sep-13 19:00N 30°11' W 093°19'3 5.5
2017-Sep-13 18:30N 30°13' W 093°17'1 1.1
2017-Sep-13 17:59N 30°14' W 093°17'0 0.0
2017-Sep-13 17:30N 30°13' W 093°17'0 0.1
2017-Sep-13 16:57N 30°14' W 093°17'3 5.9
2017-Sep-13 16:30N 30°11' W 093°18'3 6.5
2017-Sep-13 16:00N 30°08' W 093°20'3 6.8
2017-Sep-13 15:30N 30°05' W 093°20'0 0.3
2017-Sep-13 15:00N 30°05' W 093°20'0 0.0
2017-Sep-13 14:30N 30°05' W 093°20'0 0.0
2017-Sep-13 14:00N 30°05' W 093°20'0 0.0
2017-Sep-13 13:30N 30°05' W 093°20'0 0.0
2017-Sep-13 13:00N 30°05' W 093°20'0 0.0
2017-Sep-13 12:30N 30°05' W 093°20'0 0.0
2017-Sep-13 12:00N 30°05' W 093°20'0 0.0
2017-Sep-13 11:30N 30°05' W 093°20'0 0.0
2017-Sep-13 11:00N 30°05' W 093°20'0 0.0
2017-Sep-13 10:30N 30°05' W 093°20'0 0.6
2017-Sep-13 10:00N 30°05' W 093°20'2 3.4
2017-Sep-13 09:30N 30°04' W 093°21'1 1.3
2017-Sep-13 09:00N 30°04' W 093°21'2 4.7
2017-Sep-13 08:30N 30°06' W 093°20'3 5.5
2017-Sep-13 08:00N 30°09' W 093°20'3 5.4
2017-Sep-13 07:30N 30°11' W 093°18'3 5.6
2017-Sep-13 07:00N 30°13' W 093°16'1 2.2
2017-Sep-13 06:30N 30°14' W 093°15'0 0.0
2017-Sep-13 06:00N 30°14' W 093°15'0 0.0
2017-Sep-13 05:30N 30°14' W 093°15'0 0.0
2017-Sep-13 05:00N 30°14' W 093°15'0 0.0
2017-Sep-13 04:30N 30°14' W 093°15'0 0.0
2017-Sep-13 04:00N 30°14' W 093°15'0 0.0
2017-Sep-13 03:30N 30°14' W 093°15'0 0.0
2017-Sep-13 02:59N 30°14' W 093°15'0 0.0
2017-Sep-13 02:30N 30°14' W 093°15'0 0.0
2017-Sep-13 01:58N 30°14' W 093°15'0 0.0
2017-Sep-13 01:30N 30°14' W 093°15'0 0.0
2017-Sep-13 01:00N 30°14' W 093°15'0 0.0
2017-Sep-13 00:30N 30°14' W 093°15'0 0.0
2017-Sep-13 00:00N 30°14' W 093°15'1 1.8
2017-Sep-12 23:30N 30°13' W 093°16'2 4.5
2017-Sep-12 23:00N 30°12' W 093°18'3 5.6
2017-Sep-12 22:30N 30°09' W 093°20'3 5.4
2017-Sep-12 22:00N 30°07' W 093°20'2 4.8
2017-Sep-12 21:30N 30°04' W 093°20'1 2.6
2017-Sep-12 21:00N 30°04' W 093°22'0 0.6
2017-Sep-12 20:30N 30°04' W 093°21'0 0.0
2017-Sep-12 20:00N 30°04' W 093°21'0 0.1
2017-Sep-12 19:30N 30°04' W 093°21'0 0.2
2017-Sep-12 19:00N 30°04' W 093°21'0 0.2
2017-Sep-12 18:30N 30°04' W 093°21'2 3.6
2017-Sep-12 18:00N 30°05' W 093°20'2 3.0
2017-Sep-12 17:30N 30°04' W 093°21'0 1.0
2017-Sep-12 17:00N 30°04' W 093°22'0 0.7
2017-Sep-12 16:30N 30°04' W 093°21'0 0.0
2017-Sep-12 16:00N 30°04' W 093°21'2 3.8
2017-Sep-12 15:30N 30°05' W 093°20'0 1.0
2017-Sep-12 15:00N 30°05' W 093°20'0 1.0
2017-Sep-12 14:30N 30°05' W 093°20'0 0.0
2017-Sep-12 14:00N 30°05' W 093°20'1 0.2
2017-Sep-12 06:19N 30°06' W 093°19'2 7.4
2017-Sep-12 06:00N 30°04' W 093°21'0 0.3
2017-Sep-12 05:29N 30°04' W 093°21'2 4.8
2017-Sep-12 05:00N 30°06' W 093°20'3 5.7
2017-Sep-12 04:30N 30°09' W 093°20'3 5.4
2017-Sep-12 04:00N 30°11' W 093°18'3 5.6
2017-Sep-12 03:30N 30°13' W 093°16'1 2.2
2017-Sep-12 03:00N 30°14' W 093°15'0 0.0
2017-Sep-12 02:30N 30°14' W 093°15'0 0.0
2017-Sep-12 02:00N 30°14' W 093°15'0 0.0
2017-Sep-12 01:30N 30°14' W 093°15'0 0.0
2017-Sep-12 01:00N 30°14' W 093°15'0 0.0
2017-Sep-12 00:25N 30°14' W 093°15'0 0.0
2017-Sep-11 23:57N 30°14' W 093°15'0 0.0
2017-Sep-11 23:29N 30°14' W 093°15'0 0.0
2017-Sep-11 23:00N 30°14' W 093°15'0 0.0
2017-Sep-11 22:30N 30°14' W 093°15'0 0.0
2017-Sep-11 22:00N 30°14' W 093°15'0 0.0
2017-Sep-11 21:30N 30°14' W 093°15'0 0.0
2017-Sep-11 21:00N 30°14' W 093°15'0 0.0
2017-Sep-11 20:30N 30°14' W 093°15'2 3.2
2017-Sep-11 20:00N 30°12' W 093°16'3 5.9
2017-Sep-11 19:30N 30°11' W 093°19'3 5.2
2017-Sep-11 19:00N 30°08' W 093°20'3 5.5
2017-Sep-11 18:30N 30°06' W 093°20'3 5.4
2017-Sep-11 18:00N 30°04' W 093°22'  

Dump ship's entire track history